Time,TemperatureF,DewpointF,PressureIn,WindDirection,WindDirectionDegrees,WindSpeedMPH,WindSpeedGustMPH,Humidity,HourlyPrecipIn,Conditions,Clouds,dailyrainin,SoftwareType,DateUTC
2013-08-13 00:12:00,52.0,50.0,30.06,ENE,65,0.0,1.0,92,0.00,,,0.00,,2013-08-13 05:12:00,
2013-08-13 00:21:00,51.0,49.0,30.06,ENE,65,0.0,0.0,92,0.00,,,0.00,,2013-08-13 05:21:00,
2013-08-13 00:52:00,50.0,48.0,30.07,ENE,65,0.0,1.0,93,0.00,,,0.00,,2013-08-13 05:52:00,
2013-08-13 01:11:00,50.0,48.0,30.07,ENE,65,0.0,0.0,93,0.00,,,0.00,,2013-08-13 06:11:00,
2013-08-13 01:21:00,50.0,48.0,30.06,ENE,65,0.0,0.0,94,0.00,,,0.00,,2013-08-13 06:21:00,
2013-08-13 01:42:00,50.0,48.0,30.07,ENE,65,0.0,0.0,94,0.00,,,0.00,,2013-08-13 06:42:00,
2013-08-13 01:52:00,49.0,47.0,30.07,ENE,65,0.0,0.0,94,0.00,,,0.00,,2013-08-13 06:52:00,
2013-08-13 02:12:00,50.0,48.0,30.07,ENE,65,0.0,0.0,94,0.00,,,0.00,,2013-08-13 07:12:00,
2013-08-13 02:21:00,49.0,47.0,30.08,ENE,65,0.0,0.0,94,0.00,,,0.00,,2013-08-13 07:21:00,
2013-08-13 02:42:00,49.0,47.0,30.08,ENE,65,0.0,0.0,94,0.00,,,0.00,,2013-08-13 07:42:00,
2013-08-13 02:52:00,49.0,47.0,30.08,ENE,65,0.0,0.0,94,0.00,,,0.00,,2013-08-13 07:52:00,
2013-08-13 03:11:00,49.0,47.0,30.09,ENE,65,0.0,0.0,94,0.00,,,0.00,,2013-08-13 08:11:00,
2013-08-13 03:22:00,49.0,47.0,30.09,ENE,65,0.0,0.0,94,0.00,,,0.00,,2013-08-13 08:22:00,
2013-08-13 03:42:00,49.0,47.0,30.09,ENE,65,0.0,0.0,94,0.00,,,0.00,,2013-08-13 08:42:00,
2013-08-13 03:52:00,48.0,46.0,30.09,ENE,65,0.0,0.0,94,0.00,,,0.00,,2013-08-13 08:52:00,
2013-08-13 04:11:00,48.0,46.0,30.10,ENE,65,0.0,0.0,94,0.00,,,0.00,,2013-08-13 09:11:00,
2013-08-13 04:22:00,48.0,46.0,30.10,ENE,65,0.0,0.0,94,0.00,,,0.00,,2013-08-13 09:22:00,
2013-08-13 04:43:00,48.0,46.0,30.10,ENE,65,0.0,0.0,94,0.00,,,0.00,,2013-08-13 09:43:00,
2013-08-13 04:54:00,48.0,46.0,30.10,ENE,65,0.0,0.0,94,0.00,,,0.00,,2013-08-13 09:54:00,
2013-08-13 05:12:00,49.0,47.0,30.11,ENE,65,0.0,1.0,93,0.00,,,0.00,,2013-08-13 10:12:00,
2013-08-13 05:23:00,49.0,47.0,30.10,ENE,65,0.0,0.0,92,0.00,,,0.00,,2013-08-13 10:23:00,
2013-08-13 05:42:00,48.0,46.0,30.10,ENE,65,0.0,0.0,92,0.00,,,0.00,,2013-08-13 10:42:00,
2013-08-13 05:53:00,48.0,46.0,30.10,ENE,65,0.0,0.0,92,0.00,,,0.00,,2013-08-13 10:53:00,
2013-08-13 06:11:00,49.0,47.0,30.10,ENE,65,0.0,0.0,92,0.00,,,0.00,,2013-08-13 11:11:00,
2013-08-13 06:22:00,49.0,47.0,30.10,ENE,65,0.0,0.0,93,0.00,,,0.00,,2013-08-13 11:22:00,
2013-08-13 06:42:00,49.0,47.0,30.11,ENE,65,0.0,0.0,94,0.00,,,0.00,,2013-08-13 11:42:00,
2013-08-13 06:52:00,50.0,49.0,30.11,ENE,65,0.0,1.0,95,0.00,,,0.00,,2013-08-13 11:52:00,
2013-08-13 07:12:00,52.0,51.0,30.11,ENE,65,0.0,2.0,95,0.00,,,0.00,,2013-08-13 12:12:00,
2013-08-13 07:21:00,53.0,51.0,30.11,WSW,245,0.0,2.0,94,0.00,,,0.00,,2013-08-13 12:21:00,
2013-08-13 07:42:00,53.0,51.0,30.11,WSW,245,0.0,2.0,93,0.00,,,0.00,,2013-08-13 12:42:00,
2013-08-13 07:52:00,54.0,52.0,30.11,WSW,245,0.0,1.0,93,0.00,,,0.00,,2013-08-13 12:52:00,
2013-08-13 08:11:00,54.0,52.0,30.12,WSW,245,0.0,2.0,93,0.00,,,0.00,,2013-08-13 13:11:00,
2013-08-13 08:22:00,55.0,53.0,30.13,WSW,245,0.0,1.0,92,0.00,,,0.00,,2013-08-13 13:22:00,
2013-08-13 08:42:00,56.0,54.0,30.13,WSW,245,0.0,2.0,92,0.00,,,0.00,,2013-08-13 13:42:00,
2013-08-13 08:52:00,59.0,55.0,30.14,WNW,288,0.0,2.0,87,0.00,,,0.00,,2013-08-13 13:52:00,
2013-08-13 09:11:00,61.0,56.0,30.14,NE,38,0.0,2.0,83,0.00,,,0.00,,2013-08-13 14:11:00,
2013-08-13 09:22:00,62.0,56.0,30.14,ENE,71,0.0,2.0,80,0.00,,,0.00,,2013-08-13 14:22:00,
2013-08-13 09:42:00,63.0,57.0,30.15,North,5,0.0,3.0,81,0.00,,,0.00,,2013-08-13 14:42:00,
2013-08-13 09:52:00,63.0,56.0,30.15,NE,49,0.0,2.0,78,0.00,,,0.00,,2013-08-13 14:52:00,
2013-08-13 10:11:00,63.0,56.0,30.16,NNE,26,0.0,6.0,78,0.00,,,0.00,,2013-08-13 15:11:00,
2013-08-13 10:21:00,63.0,56.0,30.16,ENE,70,0.0,5.0,79,0.00,,,0.00,,2013-08-13 15:21:00,
2013-08-13 10:44:00,63.0,55.0,30.16,NNE,23,1.0,4.0,76,0.00,,,0.00,,2013-08-13 15:44:00,
2013-08-13 10:54:00,63.0,57.0,30.16,ENE,66,0.0,3.0,82,0.00,,,0.00,,2013-08-13 15:54:00,
2013-08-13 11:13:00,64.0,55.0,30.16,NNW,341,1.0,3.0,73,0.00,,,0.00,,2013-08-13 16:13:00,
2013-08-13 11:23:00,63.0,55.0,30.17,ENE,71,1.0,5.0,76,0.00,,,0.00,,2013-08-13 16:23:00,
2013-08-13 11:54:00,65.0,56.0,30.17,NNE,26,1.0,5.0,73,0.00,,,0.00,,2013-08-13 16:54:00,
2013-08-13 12:16:00,65.0,55.0,30.17,East,98,0.0,6.0,71,0.00,,,0.00,,2013-08-13 17:16:00,
2013-08-13 12:27:00,65.0,53.0,30.17,NNE,22,2.0,4.0,66,0.00,,,0.00,,2013-08-13 17:27:00,
2013-08-13 12:46:00,-999.0,-99.9,30.17,ENE,74,0.0,5.0,71,0.00,,,0.00,,2013-08-13 17:46:00,
2013-08-13 12:56:00,64.0,56.0,30.17,ENE,71,1.0,6.0,74,0.00,,,0.00,,2013-08-13 17:56:00,
2013-08-13 13:15:00,66.0,55.0,30.18,ENE,78,1.0,7.0,68,0.00,,,0.00,,2013-08-13 18:15:00,
2013-08-13 13:25:00,65.0,55.0,30.17,East,93,1.0,6.0,71,0.00,,,0.00,,2013-08-13 18:25:00,
2013-08-13 13:44:00,65.0,54.0,30.17,ENE,68,0.0,4.0,68,0.00,,,0.00,,2013-08-13 18:44:00,
2013-08-13 13:56:00,67.0,56.0,30.17,NE,46,1.0,4.0,67,0.00,,,0.00,,2013-08-13 18:56:00,
2013-08-13 14:14:00,65.0,54.0,30.17,ENE,59,2.0,5.0,67,0.00,,,0.00,,2013-08-13 19:14:00,
2013-08-13 14:24:00,65.0,53.0,30.17,NE,38,2.0,6.0,66,0.00,,,0.00,,2013-08-13 19:24:00,
2013-08-13 14:44:00,67.0,56.0,30.17,NNE,32,1.0,4.0,69,0.00,,,0.00,,2013-08-13 19:44:00,
2013-08-13 14:55:00,66.0,53.0,30.17,NE,35,1.0,4.0,62,0.00,,,0.00,,2013-08-13 19:55:00,
2013-08-13 15:15:00,67.0,53.0,30.17,SSE,153,1.0,4.0,60,0.00,,,0.00,,2013-08-13 20:15:00,
2013-08-13 15:22:00,64.0,51.0,30.17,NE,49,0.0,3.0,63,0.00,,,0.00,,2013-08-13 20:22:00,
2013-08-13 15:53:00,64.0,53.0,30.17,NE,36,0.0,4.0,67,0.00,,,0.00,,2013-08-13 20:53:00,
2013-08-13 16:11:00,64.0,52.0,30.17,East,88,0.0,5.0,66,0.00,,,0.00,,2013-08-13 21:11:00,
2013-08-13 16:24:00,64.0,52.0,30.16,NE,37,0.0,3.0,65,0.00,,,0.00,,2013-08-13 21:24:00,
2013-08-13 16:46:00,65.0,52.0,30.16,NE,44,0.0,4.0,63,0.00,,,0.00,,2013-08-13 21:46:00,
2013-08-13 16:54:00,67.0,54.0,30.16,NE,44,0.0,3.0,62,0.00,,,0.00,,2013-08-13 21:54:00,
2013-08-13 17:13:00,67.0,54.0,30.16,NE,56,0.0,2.0,62,0.00,,,0.00,,2013-08-13 22:13:00,
2013-08-13 17:22:00,66.0,51.0,30.16,North,355,0.0,2.0,59,0.00,,,0.00,,2013-08-13 22:22:00,
2013-08-13 17:50:00,66.0,53.0,30.16,NE,56,0.0,3.0,62,0.00,,,0.00,,2013-08-13 22:50:00,
2013-08-13 17:57:00,66.0,51.0,30.16,NE,51,0.0,4.0,58,0.00,,,0.00,,2013-08-13 22:57:00,
2013-08-13 18:13:00,66.0,51.0,30.15,NNE,26,0.0,3.0,59,0.00,,,0.00,,2013-08-13 23:13:00,
2013-08-13 18:26:00,65.0,51.0,30.15,NNE,17,0.0,4.0,60,0.00,,,0.00,,2013-08-13 23:26:00,
2013-08-13 18:46:00,65.0,52.0,30.15,NE,43,0.0,3.0,63,0.00,,,0.00,,2013-08-13 23:46:00,
2013-08-13 18:57:00,65.0,52.0,30.15,NE,40,0.0,3.0,62,0.00,,,0.00,,2013-08-13 23:57:00,
2013-08-13 19:11:00,64.0,50.0,30.15,ENE,63,0.0,3.0,61,0.00,,,0.00,,2013-08-14 00:11:00,
2013-08-13 19:22:00,64.0,50.0,30.15,ENE,61,0.0,2.0,61,0.00,,,0.00,,2013-08-14 00:22:00,
2013-08-13 19:42:00,63.0,49.0,30.15,East,82,0.0,3.0,61,0.00,,,0.00,,2013-08-14 00:42:00,
2013-08-13 19:52:00,62.0,50.0,30.15,NNE,26,0.0,1.0,64,0.00,,,0.00,,2013-08-14 00:52:00,
2013-08-13 20:11:00,61.0,50.0,30.14,NNE,26,0.0,2.0,67,0.00,,,0.00,,2013-08-14 01:11:00,
2013-08-13 20:21:00,60.0,50.0,30.14,NNE,26,0.0,1.0,70,0.00,,,0.00,,2013-08-14 01:21:00,
2013-08-13 20:42:00,59.0,50.0,30.14,NNE,26,0.0,0.0,73,0.00,,,0.00,,2013-08-14 01:42:00,
2013-08-13 20:52:00,58.0,50.0,30.14,NNE,26,0.0,0.0,76,0.00,,,0.00,,2013-08-14 01:52:00,
2013-08-13 21:11:00,57.0,51.0,30.15,NNE,26,0.0,0.0,79,0.00,,,0.00,,2013-08-14 02:11:00,
2013-08-13 21:21:00,56.0,50.0,30.15,NNE,26,0.0,0.0,81,0.00,,,0.00,,2013-08-14 02:21:00,
2013-08-13 21:42:00,55.0,50.0,30.15,NNE,26,0.0,0.0,83,0.00,,,0.00,,2013-08-14 02:42:00,
2013-08-13 21:52:00,54.0,50.0,30.16,NNE,26,0.0,0.0,85,0.00,,,0.00,,2013-08-14 02:52:00,
2013-08-13 22:11:00,54.0,50.0,30.16,NNE,26,0.0,0.0,87,0.00,,,0.00,,2013-08-14 03:11:00,
2013-08-13 22:22:00,53.0,50.0,30.16,NNE,26,0.0,0.0,88,0.00,,,0.00,,2013-08-14 03:22:00,
2013-08-13 22:43:00,53.0,50.0,30.16,NNE,26,0.0,0.0,88,0.00,,,0.00,,2013-08-14 03:43:00,
2013-08-13 22:53:00,52.0,49.0,30.17,NNE,26,0.0,0.0,89,0.00,,,0.00,,2013-08-14 03:53:00,
2013-08-13 23:12:00,52.0,49.0,30.17,NNE,26,0.0,0.0,90,0.00,,,0.00,,2013-08-14 04:12:00,
2013-08-13 23:23:00,51.0,48.0,30.17,NNE,26,0.0,0.0,90,0.00,,,0.00,,2013-08-14 04:23:00,
2013-08-13 23:42:00,51.0,48.0,30.17,NNE,26,0.0,0.0,91,0.00,,,0.00,,2013-08-14 04:42:00,
2013-08-13 23:52:00,50.0,47.0,30.17,NNE,26,0.0,0.0,91,0.00,,,0.00,,2013-08-14 04:52:00,